createdAt,value
2017-08-13T00:01:48.990Z,55.4
2017-08-13T00:06:55.062Z,55.4
2017-08-13T00:12:00.135Z,55.3
2017-08-13T00:17:05.202Z,55.3
2017-08-13T00:22:10.939Z,55.3
2017-08-13T00:27:16.681Z,55.3
2017-08-13T00:32:22.419Z,55.3
2017-08-13T00:37:28.499Z,55.3
2017-08-13T00:42:33.900Z,55.2
2017-08-13T00:47:39.302Z,52.6
2017-08-13T00:52:44.719Z,54.8
2017-08-13T00:57:50.794Z,54.9
2017-08-13T01:02:56.531Z,55
2017-08-13T01:08:01.935Z,55.1
2017-08-13T01:13:08.006Z,55.1
2017-08-13T01:18:14.077Z,55
2017-08-13T01:23:20.150Z,55.1
2017-08-13T01:28:25.887Z,55.1
2017-08-13T01:33:31.627Z,55.1
2017-08-13T01:38:37.363Z,55.1
2017-08-13T01:43:42.767Z,55
2017-08-13T01:48:48.174Z,55.1
2017-08-13T01:53:53.910Z,55
2017-08-13T01:58:59.647Z,55
2017-08-13T02:04:05.050Z,55
2017-08-13T02:09:10.787Z,55
2017-08-13T02:14:15.852Z,55
2017-08-13T02:19:21.921Z,55
2017-08-13T02:24:26.986Z,55
2017-08-13T02:29:32.735Z,55
2017-08-13T02:34:38.805Z,55
2017-08-13T02:39:44.207Z,55
2017-08-13T02:44:49.611Z,55
2017-08-13T02:49:55.681Z,55
2017-08-13T02:55:01.080Z,55
2017-08-13T03:00:06.821Z,55
2017-08-13T03:05:12.222Z,55
2017-08-13T03:10:17.629Z,54.9
2017-08-13T03:15:23.365Z,54.9
2017-08-13T03:20:29.437Z,54.9
2017-08-13T03:25:35.171Z,54.9
2017-08-13T03:30:40.576Z,54.9
2017-08-13T03:35:45.644Z,54.9
2017-08-13T03:40:51.381Z,54.8
2017-08-13T03:45:57.121Z,54.8
2017-08-13T03:51:02.860Z,54.8
2017-08-13T03:56:08.263Z,54.8
2017-08-13T04:01:14.001Z,54.8
2017-08-13T04:06:19.404Z,54.8
2017-08-13T04:11:25.141Z,54.8
2017-08-13T04:16:29.873Z,54.7
2017-08-13T04:21:35.275Z,54.7
2017-08-13T04:26:40.683Z,54.7
2017-08-13T04:31:45.417Z,54.7
2017-08-13T04:36:51.158Z,54.6
2017-08-13T04:41:56.565Z,54.6
2017-08-13T04:47:02.638Z,54.6
2017-08-13T04:52:08.043Z,54.6
2017-08-13T04:57:13.784Z,54.6
2017-08-13T05:02:19.529Z,54.5
2017-08-13T05:07:24.601Z,54.5
2017-08-13T05:12:30.342Z,54.5
2017-08-13T05:17:36.418Z,54.4
2017-08-13T05:22:41.487Z,54.4
2017-08-13T05:27:46.889Z,54.5
2017-08-13T05:32:52.962Z,54.4
2017-08-13T05:37:59.034Z,54.4
2017-08-13T05:43:04.774Z,54.4
2017-08-13T05:48:10.188Z,54.3
2017-08-13T05:53:15.596Z,54.2
2017-08-13T05:58:21.340Z,54.2
2017-08-13T06:03:26.742Z,54.1
2017-08-13T06:08:32.825Z,54.1
2017-08-13T06:13:38.568Z,54.1
2017-08-13T06:18:43.973Z,54
2017-08-13T06:23:50.052Z,53.9
2017-08-13T06:28:55.792Z,53.9
2017-08-13T06:34:01.535Z,53.8
2017-08-13T06:39:07.276Z,53.8
2017-08-13T06:44:13.014Z,53.8
2017-08-13T06:49:19.090Z,53.8
2017-08-13T06:54:25.170Z,53.8
2017-08-13T06:59:30.916Z,53.7
2017-08-13T07:04:36.664Z,53.6
2017-08-13T07:09:41.733Z,53.5
2017-08-13T07:14:47.480Z,53.3
2017-08-13T07:19:53.476Z,53.2
2017-08-13T07:25:00.132Z,53.1
2017-08-13T07:30:05.955Z,53.1
2017-08-13T07:35:11.474Z,53.1
2017-08-13T07:40:17.889Z,52.9
2017-08-13T07:45:23.768Z,52.6
2017-08-13T07:50:29.799Z,52.3
2017-08-13T07:55:35.382Z,51.7
2017-08-13T08:00:40.547Z,51.2
2017-08-13T08:05:45.906Z,50.8
2017-08-13T08:10:51.454Z,50.3
2017-08-13T08:15:57.554Z,49.5
2017-08-13T08:21:03.321Z,49.4
2017-08-13T08:26:09.413Z,49.7
2017-08-13T08:31:15.167Z,49.4
2017-08-13T08:36:20.582Z,49.6
2017-08-13T08:41:25.999Z,49.3
2017-08-13T08:46:31.080Z,49.5
2017-08-13T08:51:36.836Z,50
2017-08-13T08:56:42.582Z,50.8
2017-08-13T09:01:48.330Z,51.4
2017-08-13T09:06:53.743Z,51.6
2017-08-13T09:11:59.489Z,51.8
2017-08-13T09:17:05.235Z,51.9
2017-08-13T09:22:10.315Z,51.9
2017-08-13T09:27:15.724Z,51.7
2017-08-13T09:32:21.465Z,51.6
2017-08-13T09:37:26.556Z,51.4
2017-08-13T09:42:31.631Z,51.2
2017-08-13T09:47:36.707Z,51
2017-08-13T09:52:41.793Z,50.9
2017-08-13T09:57:46.228Z,49.6
2017-08-13T10:02:51.655Z,49.7
2017-08-13T10:07:57.394Z,49.3
2017-08-13T10:13:02.475Z,47.8
2017-08-13T10:18:08.238Z,47.5
2017-08-13T10:23:13.976Z,47.5
2017-08-13T10:28:19.723Z,47.9
2017-08-13T10:33:25.484Z,48.1
2017-08-13T10:38:30.565Z,48.1
2017-08-13T10:43:35.667Z,48.1
2017-08-13T10:48:40.746Z,48.3
2017-08-13T10:53:46.156Z,48.4
2017-08-13T10:58:51.235Z,48.5
2017-08-13T11:03:56.648Z,48.6
2017-08-13T11:09:02.065Z,48.7
2017-08-13T11:14:07.479Z,48.9
2017-08-13T11:19:12.993Z,48.9
2017-08-13T11:24:18.075Z,49
2017-08-13T11:29:23.822Z,49
2017-08-13T11:34:29.232Z,49.1
2017-08-13T11:39:34.643Z,49.1
2017-08-13T11:44:40.391Z,49.1
2017-08-13T11:49:46.138Z,49.1
2017-08-13T11:54:52.216Z,49.2
2017-08-13T11:59:58.294Z,49.2
2017-08-13T12:05:04.044Z,49.3
2017-08-13T12:10:09.809Z,49.3
2017-08-13T12:15:15.877Z,49.3
2017-08-13T12:20:21.960Z,49.3
2017-08-13T12:25:27.380Z,49.3
2017-08-13T12:30:33.120Z,49.4
2017-08-13T12:35:38.868Z,49.4
2017-08-13T12:40:44.275Z,49.5
2017-08-13T12:45:49.687Z,49.5
2017-08-13T12:50:54.761Z,49.6
2017-08-13T12:56:00.841Z,49.7
2017-08-13T13:01:06.588Z,49.7
2017-08-13T13:06:11.666Z,49.7
2017-08-13T13:11:17.747Z,49.7
2017-08-13T13:16:22.487Z,49.7
2017-08-13T13:21:28.569Z,49.8
2017-08-13T13:26:33.643Z,49.8
2017-08-13T13:31:39.058Z,49.8
2017-08-13T13:36:44.138Z,49.8
2017-08-13T13:41:49.884Z,49.8
2017-08-13T13:46:55.963Z,49.8
2017-08-13T13:52:01.374Z,49.8
2017-08-13T13:57:06.783Z,49.8
2017-08-13T14:02:12.196Z,49.9
2017-08-13T14:07:17.606Z,49.9
2017-08-13T14:12:23.687Z,50
2017-08-13T14:17:29.430Z,50
2017-08-13T14:22:34.839Z,50
2017-08-13T14:27:40.255Z,50
2017-08-13T14:32:46.345Z,50
2017-08-13T14:37:52.079Z,50.1
2017-08-13T14:42:57.155Z,50.1
2017-08-13T14:48:02.665Z,50.1
2017-08-13T14:53:08.748Z,50.2
2017-08-13T14:58:13.824Z,50.2
2017-08-13T15:03:19.236Z,50.3
2017-08-13T15:08:24.978Z,50.3
2017-08-13T15:13:30.723Z,50.4
2017-08-13T15:18:36.140Z,50.4
2017-08-13T15:23:41.883Z,50.5
2017-08-13T15:28:47.627Z,50.5
2017-08-13T15:33:53.039Z,50.5
2017-08-13T15:38:58.445Z,50.6
2017-08-13T15:44:04.195Z,50.6
2017-08-13T15:49:09.270Z,50.6
2017-08-13T15:54:15.015Z,50.6
2017-08-13T15:59:20.087Z,50.6
2017-08-13T16:04:25.833Z,50.6
2017-08-13T16:09:31.245Z,50.6
2017-08-13T16:14:36.869Z,50.6
2017-08-13T16:19:42.927Z,50.6
2017-08-13T16:24:48.682Z,50.6
2017-08-13T16:29:54.977Z,50.6
2017-08-13T16:35:00.749Z,50.6
2017-08-13T16:40:07.296Z,50.4
2017-08-13T16:45:13.392Z,50.1
2017-08-13T16:50:18.475Z,49.3
2017-08-13T16:55:23.884Z,47.8
2017-08-13T17:00:29.650Z,47.4
2017-08-13T17:05:35.064Z,45.6
2017-08-13T17:10:41.147Z,45.7
2017-08-13T17:15:46.242Z,46.5
2017-08-13T17:20:51.668Z,44.7
2017-08-13T17:25:57.071Z,45.6
2017-08-13T17:31:03.329Z,45.1
2017-08-13T17:36:09.152Z,45.9
2017-08-13T17:41:14.575Z,44.8
2017-08-13T17:46:19.986Z,44.2
2017-08-13T17:51:25.446Z,43.2
2017-08-13T17:56:30.579Z,44
2017-08-13T18:01:36.539Z,43.5
2017-08-13T18:06:41.978Z,43.9
2017-08-13T18:11:47.475Z,45.8
2017-08-13T18:16:53.218Z,46.5
2017-08-13T18:21:57.972Z,46.1
2017-08-13T18:27:03.721Z,46.5
2017-08-13T18:32:08.793Z,46.6
2017-08-13T18:37:14.201Z,46.6
2017-08-13T18:42:19.952Z,46.6
2017-08-13T18:47:25.694Z,46.4
2017-08-13T18:52:31.115Z,46
2017-08-13T18:57:35.845Z,44.8
2017-08-13T19:02:41.254Z,41.8
2017-08-13T19:07:46.998Z,41.2
2017-08-13T19:12:52.752Z,41.8
2017-08-13T19:17:58.496Z,43.6
2017-08-13T19:23:03.604Z,44.5
2017-08-13T19:28:09.359Z,44.8
2017-08-13T19:33:14.443Z,45
2017-08-13T19:38:19.880Z,45.2
2017-08-13T19:43:25.636Z,45.3
2017-08-13T19:48:31.725Z,45.5
2017-08-13T19:53:37.805Z,45.5
2017-08-13T19:58:43.886Z,45.6
2017-08-13T20:03:49.629Z,45.7
2017-08-13T20:08:55.373Z,45.8
2017-08-13T20:14:01.127Z,45.8
2017-08-13T20:19:06.204Z,45.8
2017-08-13T20:24:11.948Z,45.9
2017-08-13T20:29:17.696Z,45.9
2017-08-13T20:34:23.442Z,46
2017-08-13T20:39:29.190Z,46.1
2017-08-13T20:44:34.605Z,46.1
2017-08-13T20:49:40.354Z,46.1
2017-08-13T20:54:45.435Z,46.2
2017-08-13T20:59:51.513Z,46.3
2017-08-13T21:04:56.594Z,46.3
2017-08-13T21:10:02.671Z,46.4
2017-08-13T21:15:08.088Z,46.4
2017-08-13T21:20:14.168Z,46.5
2017-08-13T21:25:19.917Z,46.5
2017-08-13T21:30:25.660Z,46.5
2017-08-13T21:35:30.746Z,46.6
2017-08-13T21:40:36.828Z,46.4
2017-08-13T21:45:42.606Z,46.7
2017-08-13T21:50:48.029Z,46.8
2017-08-13T21:55:53.790Z,46.8
2017-08-13T22:00:59.544Z,46.6
2017-08-13T22:06:05.298Z,46.5
2017-08-13T22:11:11.040Z,46.5
2017-08-13T22:16:16.446Z,46.5
2017-08-13T22:21:22.192Z,46.5
2017-08-13T22:26:27.932Z,46.5
2017-08-13T22:31:33.335Z,46.6
2017-08-13T22:36:38.739Z,46.5
2017-08-13T22:41:43.807Z,46.6
2017-08-13T22:46:49.879Z,46.6
2017-08-13T22:51:55.567Z,46.6
2017-08-13T22:57:01.305Z,46.6
2017-08-13T23:02:06.372Z,46.6
2017-08-13T23:07:11.442Z,46.6
2017-08-13T23:12:17.177Z,46.7
2017-08-13T23:17:22.581Z,46.7
2017-08-13T23:22:27.985Z,46.8
2017-08-13T23:27:33.723Z,46.7
2017-08-13T23:32:39.792Z,46.8
2017-08-13T23:37:44.862Z,46.8
2017-08-13T23:42:50.603Z,46.8
2017-08-13T23:47:56.006Z,46.8
2017-08-13T23:53:01.072Z,46.9
2017-08-13T23:58:07.149Z,46.9
